マカオ の空港の天気 - METARとTAF

マカオ国際空港 ( VMMC / MFM ) - マカオ タイパ島
飛行場実況気象(Metar)
観測時間04/27 14:35 CST (04/27 06:35 UTC)
風向・風速北 9m/s
視程4000m
天気現象もや
少しの雲 雲底高度 210m
全天の4割程度の雲 雲底高度 760m
気温21℃
湿度94%
気圧1012hPa
METARVMMC 270635Z 01018KT 4000 BR FEW007 SCT025 21/20 Q1012 NOSIG
過去の天気等 Google飛行場航空写真 Wunderground天気予報

過去48時間のMETAR

飛行場予報(TAF)
発表時間: 4/27 14:33 CST (4/27 06:33 UTC)
予報対象時間: 27日14時 CST ~ 28日20時 CST
風向・風速北 6m/s
視程9,000m
少しの雲 雲底高度 300m
全天の4割程度の雲 雲底高度 760m
27日14時 CST ~ 27日20時 CST に一時的に
視程4,000m
天気現象もや
28日14時 CST ~ 28日20時 CST に一時的に
風向・風速東 4m/s
TAF AMD VMMC 270633Z 2706/2812 36012KT 9000 FEW010 SCT025
TEMPO 2706/2712 4000 BR
TEMPO 2806/2812 10008KT